Time;durP1;ratioP1;P1;durP2;ratioP2;P2;SDS_P1;SDS_P2;PMS_P1;PMS_P2;Temp;Humidity;BMP_temperature;BMP_pressure;BME280_temperature;BME280_humidity;BME280_pressure;Samples;Min_cycle;Max_cycle;Signal;HPM_P1;HPM_P2
2023/07/18 00:00:32;;;;;;;7.35;3.28;;;;;;;15.37;84.87;102070.16;5058444;28;21526;-54
2023/07/18 00:02:58;;;;;;;8.07;3.42;;;;;;;15.36;85.45;102065.78;5058607;28;20028;-53
2023/07/18 00:05:23;;;;;;;8.90;3.72;;;;;;;15.34;85.24;102070.41;5064018;28;20474;-53
2023/07/18 00:07:48;;;;;;;7.88;3.72;;;;;;;15.30;85.24;102072.44;5059273;28;20031;-51
2023/07/18 00:10:18;;;;;;;8.90;3.55;;;;;;;15.27;85.71;102071.81;5061731;28;20382;-53
2023/07/18 00:12:43;;;;;;;;;;;;;;;15.40;81.87;102077.09;5060800;28;20029;-52
2023/07/18 00:15:09;;;;;;;9.45;3.63;;;;;;;15.24;85.32;102067.56;5061695;28;20269;-52
2023/07/18 00:17:36;;;;;;;10.15;4.07;;;;;;;15.13;85.69;102059.50;5062256;28;20025;-51
2023/07/18 00:20:17;;;;;;;6.18;3.35;;;;;;;15.18;85.96;102071.56;5060552;28;20036;-54
2023/07/18 00:22:48;;;;;;;7.80;4.20;;;;;;;15.12;86.74;102068.50;5061185;28;20085;-53
2023/07/18 00:25:16;;;;;;;8.55;3.85;;;;;;;15.09;86.82;102080.31;5061821;28;20021;-54
2023/07/18 00:27:53;;;;;;;8.32;3.83;;;;;;;15.07;87.44;102073.34;5058890;28;20029;-55
2023/07/18 00:30:20;;;;;;;7.93;4.00;;;;;;;15.05;86.95;102072.63;5057259;28;20035;-54
2023/07/18 00:32:46;;;;;;;7.10;4.18;;;;;;;15.01;87.38;102085.38;5064625;28;20085;-51
2023/07/18 00:35:13;;;;;;;9.95;4.45;;;;;;;14.94;88.07;102073.44;5057494;28;20031;-54
2023/07/18 00:37:39;;;;;;;11.18;4.30;;;;;;;14.89;89.05;102071.13;5058922;28;20035;-52
2023/07/18 00:40:10;;;;;;;9.45;4.68;;;;;;;14.84;89.33;102067.94;5058490;28;20040;-53
2023/07/18 00:42:40;;;;;;;8.32;4.95;;;;;;;14.89;89.42;102072.91;5057926;28;20379;-54
2023/07/18 00:45:07;;;;;;;10.32;4.65;;;;;;;14.83;89.24;102074.25;5055607;28;20040;-53
2023/07/18 00:47:42;;;;;;;9.13;4.55;;;;;;;14.81;89.33;102070.84;5062472;28;20632;-53
2023/07/18 00:50:10;;;;;;;7.50;4.43;;;;;;;14.78;90.27;102061.22;5056833;28;20025;-52
2023/07/18 00:52:41;;;;;;;10.10;4.63;;;;;;;14.76;89.68;102056.97;5057553;28;20123;-52
2023/07/18 00:55:11;;;;;;;7.28;4.40;;;;;;;14.77;89.27;102062.19;5057579;28;20024;-53
2023/07/18 00:57:41;;;;;;;9.10;4.32;;;;;;;14.75;89.64;102060.59;5056342;28;20025;-51
2023/07/18 01:00:13;;;;;;;8.05;4.80;;;;;;;14.69;89.50;102059.25;5057472;28;20512;-54
2023/07/18 01:02:44;;;;;;;7.63;4.70;;;;;;;14.69;89.21;102053.03;5056703;28;20025;-52
2023/07/18 01:05:10;;;;;;;10.43;5.05;;;;;;;14.65;88.38;102055.06;5056380;28;20040;-51
2023/07/18 01:07:40;;;;;;;6.57;4.80;;;;;;;14.57;90.10;102054.75;5061178;28;20085;-52
2023/07/18 01:10:26;;;;;;;6.60;4.80;;;;;;;14.60;89.26;102058.13;5056316;28;20024;-54
2023/07/18 01:12:59;;;;;;;10.45;4.78;;;;;;;14.54;90.34;102049.66;5059230;28;20059;-51
2023/07/18 01:15:26;;;;;;;8.75;5.40;;;;;;;14.50;89.90;102054.34;5059369;28;20029;-53
2023/07/18 01:17:51;;;;;;;7.32;4.68;;;;;;;14.48;89.44;102061.66;5061023;28;20028;-53
2023/07/18 01:20:21;;;;;;;7.25;4.82;;;;;;;14.43;89.91;102045.09;5057179;28;20025;-52
2023/07/18 01:22:48;;;;;;;7.28;4.57;;;;;;;14.39;89.64;102046.31;5060224;28;20115;-51
2023/07/18 01:25:16;;;;;;;9.15;4.15;;;;;;;14.38;89.80;102040.09;5057195;28;20036;-52
2023/07/18 01:27:42;;;;;;;9.30;4.55;;;;;;;14.37;89.50;102041.06;5058289;28;20025;-54
2023/07/18 01:30:09;;;;;;;7.88;4.38;;;;;;;14.35;89.82;102040.31;5062388;28;20021;-54
2023/07/18 01:32:35;;;;;;;9.38;5.00;;;;;;;14.27;89.88;102045.34;5060348;28;20068;-51
2023/07/18 01:35:05;;;;;;;7.10;4.45;;;;;;;14.25;89.97;102044.63;5060205;28;20028;-51
2023/07/18 01:37:31;;;;;;;9.75;4.35;;;;;;;14.28;89.67;102046.22;5057811;28;20174;-52
2023/07/18 01:39:57;;;;;;;8.57;4.60;;;;;;;14.23;90.01;102036.72;5062132;28;20024;-51
2023/07/18 01:42:22;;;;;;;11.00;4.68;;;;;;;14.22;89.70;102034.16;5060049;28;20348;-51
2023/07/18 01:44:47;;;;;;;9.27;5.30;;;;;;;14.19;90.08;102034.41;5061335;28;20032;-51
2023/07/18 01:47:12;;;;;;;7.28;4.13;;;;;;;14.19;89.71;102032.56;5055166;28;20087;-51
2023/07/18 01:49:38;;;;;;;7.47;4.32;;;;;;;14.14;89.57;102031.19;5063308;28;20035;-52
2023/07/18 01:52:05;;;;;;;7.93;4.18;;;;;;;14.11;90.16;102026.94;5057355;28;20033;-53
2023/07/18 01:54:30;;;;;;;13.65;5.40;;;;;;;14.07;88.80;102028.09;5064130;28;20020;-53
2023/07/18 01:56:55;;;;;;;8.07;4.40;;;;;;;14.08;90.12;102027.16;5058580;28;20428;-53
2023/07/18 01:59:22;;;;;;;8.95;5.00;;;;;;;14.05;89.90;102022.03;5058026;28;20019;-51
2023/07/18 02:01:47;;;;;;;7.88;4.72;;;;;;;14.07;89.76;102025.44;5060187;28;20059;-52
2023/07/18 02:04:13;;;;;;;7.57;4.97;;;;;;;14.05;90.04;102022.03;5065569;28;20025;-51
2023/07/18 02:06:38;;;;;;;6.38;4.03;;;;;;;14.05;89.72;102019.34;5063988;28;20024;-51
2023/07/18 02:09:04;;;;;;;7.22;4.15;;;;;;;13.97;88.45;102021.72;5063438;28;20029;-54
2023/07/18 02:11:29;;;;;;;7.82;4.45;;;;;;;13.99;89.85;102017.13;5062378;28;20021;-52
2023/07/18 02:13:54;;;;;;;7.57;4.50;;;;;;;13.96;89.74;102012.03;5062474;28;20128;-52
2023/07/18 02:16:20;;;;;;;9.10;4.72;;;;;;;13.98;89.67;102016.28;5061475;28;20025;-51
2023/07/18 02:18:45;;;;;;;7.38;4.25;;;;;;;13.91;89.59;102019.53;5064997;28;20044;-52
2023/07/18 02:21:10;;;;;;;8.25;4.30;;;;;;;13.91;89.28;102016.84;5059514;28;20033;-53
2023/07/18 02:23:36;;;;;;;7.03;4.22;;;;;;;13.86;89.48;102012.69;5063879;28;20017;-54
2023/07/18 02:26:01;;;;;;;8.15;4.68;;;;;;;13.83;89.50;102015.56;5062058;28;20088;-54
2023/07/18 02:28:26;;;;;;;8.25;4.38;;;;;;;13.84;89.09;102011.94;5066889;28;20449;-54
2023/07/18 02:30:52;;;;;;;7.47;4.10;;;;;;;13.81;88.13;102022.84;5058237;28;20044;-52
2023/07/18 02:33:17;;;;;;;8.63;4.28;;;;;;;13.75;89.61;102017.94;5067790;28;20089;-52
2023/07/18 02:35:47;;;;;;;5.35;4.03;;;;;;;13.66;89.19;102007.91;5061359;28;20470;-53
2023/07/18 02:38:13;;;;;;;7.78;4.38;;;;;;;13.67;89.13;102015.81;5063125;28;20026;-53
2023/07/18 02:40:40;;;;;;;6.60;3.92;;;;;;;13.66;88.32;102010.59;5057858;28;20044;-54
2023/07/18 02:43:06;;;;;;;5.18;3.70;;;;;;;13.63;88.91;102019.66;5064299;28;20481;-50
2023/07/18 02:45:32;;;;;;;6.53;4.28;;;;;;;13.60;89.37;102022.53;5060477;28;20053;-51
2023/07/18 02:47:57;;;;;;;6.60;4.05;;;;;;;13.57;89.43;102022.75;5065186;28;20059;-51
2023/07/18 02:50:22;;;;;;;6.03;3.78;;;;;;;13.53;89.02;102021.28;5061423;28;20033;-51
2023/07/18 02:52:48;;;;;;;7.75;4.13;;;;;;;13.50;88.63;102014.31;5062867;28;20551;-52
2023/07/18 02:55:13;;;;;;;7.88;3.88;;;;;;;13.48;88.54;102013.59;5061958;28;20029;-50
2023/07/18 02:57:39;;;;;;;7.50;4.13;;;;;;;13.46;88.90;102017.34;5063842;28;20024;-54
2023/07/18 03:00:10;;;;;;;6.40;3.47;;;;;;;13.40;88.72;102009.75;5059873;28;20020;-51
2023/07/18 03:02:37;;;;;;;4.97;3.60;;;;;;;13.40;89.07;102017.75;5059114;28;20550;-51
2023/07/18 03:05:02;;;;;;;7.47;3.83;;;;;;;13.34;88.74;102019.06;5060521;28;20060;-51
2023/07/18 03:07:28;;;;;;;6.68;3.33;;;;;;;13.32;88.89;102011.16;5066318;28;20048;-51
2023/07/18 03:09:53;;;;;;;6.95;3.50;;;;;;;13.28;89.00;102006.94;5058515;28;20452;-53
2023/07/18 03:12:21;;;;;;;5.32;3.50;;;;;;;13.30;88.30;102017.50;5063264;28;20016;-53
2023/07/18 03:14:46;;;;;;;7.22;3.53;;;;;;;13.26;88.60;102008.03;5060390;28;20033;-53
2023/07/18 03:17:11;;;;;;;6.57;3.38;;;;;;;13.25;87.93;102015.16;5062390;28;20032;-51
2023/07/18 03:19:37;;;;;;;7.78;3.58;;;;;;;13.20;88.50;102014.63;5058335;28;20029;-52
2023/07/18 03:22:03;;;;;;;6.47;3.30;;;;;;;13.20;88.51;102017.28;5068970;28;20040;-54
2023/07/18 03:24:28;;;;;;;5.68;3.17;;;;;;;13.14;88.09;102005.25;5064576;28;20551;-51
2023/07/18 03:26:54;;;;;;;6.63;3.60;;;;;;;13.10;87.89;102006.41;5059630;28;20020;-54
2023/07/18 03:29:19;;;;;;;5.70;3.10;;;;;;;13.09;87.91;102009.16;5058714;28;20029;-51
2023/07/18 03:31:45;;;;;;;6.22;2.88;;;;;;;13.05;87.94;102015.69;5063422;28;20055;-53
2023/07/18 03:34:10;;;;;;;4.88;3.35;;;;;;;13.03;88.54;102010.44;5059085;28;20490;-50
2023/07/18 03:36:35;;;;;;;9.23;3.42;;;;;;;13.01;88.29;102008.88;5069273;28;20029;-52
2023/07/18 03:39:01;;;;;;;6.22;3.55;;;;;;;13.00;88.02;102012.47;5058135;28;20021;-53
2023/07/18 03:41:26;;;;;;;6.95;3.47;;;;;;;12.98;88.78;102004.59;5062437;28;20034;-52
2023/07/18 03:43:51;;;;;;;4.40;3.47;;;;;;;12.98;88.57;102012.59;5059787;28;20040;-52
2023/07/18 03:46:17;;;;;;;6.60;3.38;;;;;;;12.96;89.05;102012.69;5066102;28;20021;-53
2023/07/18 03:48:42;;;;;;;5.45;3.50;;;;;;;12.94;88.55;102013.75;5064082;28;20111;-51
2023/07/18 03:51:08;;;;;;;7.50;3.50;;;;;;;12.93;88.41;102007.56;5061729;28;20032;-51
2023/07/18 03:53:33;;;;;;;8.73;3.40;;;;;;;12.91;88.09;102012.16;5064758;28;20029;-52
2023/07/18 03:56:06;;;;;;;6.57;3.65;;;;;;;12.86;89.14;102013.44;5060674;28;20032;-51
2023/07/18 03:58:32;;;;;;;5.50;3.45;;;;;;;12.87;88.52;102017.78;5063738;28;20052;-52
2023/07/18 04:00:57;;;;;;;5.50;3.17;;;;;;;12.85;88.79;102011.72;5063738;28;20068;-52
2023/07/18 04:03:22;;;;;;;5.32;4.10;;;;;;;12.81;88.94;102003.06;5057853;28;20503;-51
2023/07/18 04:05:49;;;;;;;4.60;3.30;;;;;;;12.87;88.50;102007.13;5060629;28;20029;-51
2023/07/18 04:08:15;;;;;;;6.20;3.35;;;;;;;12.82;88.54;102007.41;5064862;28;20501;-50
2023/07/18 04:10:40;;;;;;;6.55;3.40;;;;;;;12.82;88.58;101994.09;5059452;28;20029;-53
2023/07/18 04:13:06;;;;;;;4.93;3.30;;;;;;;12.78;89.13;101989.94;5064504;28;20113;-53
2023/07/18 04:15:31;;;;;;;7.82;3.42;;;;;;;12.76;88.74;101990.03;5061780;28;20052;-50
2023/07/18 04:17:56;;;;;;;7.45;3.33;;;;;;;12.75;89.09;101993.66;5061452;28;20029;-51
2023/07/18 04:20:21;;;;;;;8.73;3.47;;;;;;;12.75;89.39;101987.47;5058795;28;20020;-50
2023/07/18 04:22:47;;;;;;;6.68;3.80;;;;;;;12.71;89.43;101978.00;5057844;28;20029;-51
2023/07/18 04:25:12;;;;;;;3.78;3.25;;;;;;;12.73;89.15;101970.72;5062143;28;20036;-50
2023/07/18 04:27:37;;;;;;;5.30;3.20;;;;;;;12.68;89.74;101981.69;5059660;28;20385;-52
2023/07/18 04:30:03;;;;;;;9.38;3.65;;;;;;;12.67;89.24;101979.97;5058941;28;20178;-50
2023/07/18 04:32:29;;;;;;;4.05;3.10;;;;;;;12.69;89.62;101991.41;5060683;28;20040;-50
2023/07/18 04:34:54;;;;;;;6.80;3.67;;;;;;;12.67;89.43;101981.81;5059624;28;20119;-51
2023/07/18 04:37:20;;;;;;;9.63;3.35;;;;;;;12.68;89.34;101988.84;5058171;28;20041;-50
2023/07/18 04:39:46;;;;;;;5.78;3.42;;;;;;;12.68;90.42;101987.03;5061386;28;20029;-51
2023/07/18 04:42:11;;;;;;;5.95;3.90;;;;;;;12.71;90.21;101983.31;5060483;28;20033;-51
2023/07/18 04:44:37;;;;;;;10.20;3.92;;;;;;;12.71;90.31;101986.84;5062042;28;20070;-50
2023/07/18 04:47:03;;;;;;;4.93;3.50;;;;;;;12.71;90.16;101991.31;5061089;28;20031;-51
2023/07/18 04:49:29;;;;;;;8.45;3.55;;;;;;;12.79;89.81;101991.66;5065546;28;20032;-53
2023/07/18 04:51:54;;;;;;;6.90;3.53;;;;;;;12.82;90.03;101986.09;5062877;28;20029;-51
2023/07/18 04:54:19;;;;;;;9.85;3.60;;;;;;;12.82;89.86;101980.75;5059078;28;20036;-52
2023/07/18 04:56:45;;;;;;;6.05;3.35;;;;;;;12.86;89.65;101987.59;5058139;28;20407;-53
2023/07/18 04:59:10;;;;;;;5.40;3.55;;;;;;;12.92;90.60;101978.31;5059587;28;20026;-50
2023/07/18 05:01:36;;;;;;;7.90;3.90;;;;;;;13.02;89.90;101975.88;5058671;28;20127;-52
2023/07/18 05:04:02;;;;;;;7.40;3.50;;;;;;;13.07;90.07;101971.97;5059817;28;20017;-54
2023/07/18 05:06:28;;;;;;;6.90;3.30;;;;;;;13.20;88.84;101971.09;5058593;28;20028;-54
2023/07/18 05:08:53;;;;;;;7.65;3.97;;;;;;;13.28;88.88;101968.75;5060434;28;20106;-52
2023/07/18 05:11:19;;;;;;;5.75;3.28;;;;;;;13.38;88.56;101975.16;5059367;28;20028;-51
2023/07/18 05:13:44;;;;;;;5.32;2.88;;;;;;;13.47;88.02;101985.22;5058331;28;20021;-51
2023/07/18 05:16:09;;;;;;;6.03;3.35;;;;;;;13.47;87.98;101970.97;5057577;28;20033;-52
2023/07/18 05:18:34;;;;;;;5.15;2.90;;;;;;;13.59;87.73;101975.47;5065413;28;20029;-54
2023/07/18 05:21:00;;;;;;;5.68;3.53;;;;;;;13.63;87.18;101976.09;5061207;28;20029;-53
2023/07/18 05:23:25;;;;;;;6.72;2.88;;;;;;;13.67;86.95;101975.78;5059154;28;20116;-53
2023/07/18 05:25:50;;;;;;;7.32;3.47;;;;;;;13.71;87.24;101967.56;5058561;28;20037;-51
2023/07/18 05:28:16;;;;;;;7.15;3.05;;;;;;;13.74;87.78;101972.66;5064312;28;20032;-53
2023/07/18 05:30:41;;;;;;;4.93;3.17;;;;;;;13.78;87.96;101979.50;5058000;28;20104;-53
2023/07/18 05:33:07;;;;;;;4.30;3.05;;;;;;;13.85;87.73;101973.56;5058619;28;20516;-51
2023/07/18 05:35:32;;;;;;;5.38;3.00;;;;;;;13.98;87.31;101970.03;5058939;28;20055;-53
2023/07/18 05:37:58;;;;;;;5.93;3.03;;;;;;;14.09;87.91;101966.56;5053653;28;20515;-51
2023/07/18 05:40:23;;;;;;;6.88;3.20;;;;;;;14.30;86.69;101972.13;5056767;28;20029;-53
2023/07/18 05:42:49;;;;;;;4.82;3.10;;;;;;;14.51;85.48;101975.03;5051509;28;20025;-57
2023/07/18 05:45:14;;;;;;;8.23;3.10;;;;;;;14.67;84.28;101974.75;5056675;28;20033;-54
2023/07/18 05:47:40;;;;;;;5.47;3.05;;;;;;;14.87;83.95;101968.75;5054830;28;20028;-52
2023/07/18 05:50:06;;;;;;;7.50;3.08;;;;;;;15.14;83.02;101975.59;5055684;28;20113;-55
2023/07/18 05:52:32;;;;;;;9.65;3.15;;;;;;;15.30;82.86;101980.59;5056551;28;20604;-55
2023/07/18 05:54:58;;;;;;;6.93;3.10;;;;;;;15.45;81.05;101981.19;5065858;28;20074;-55
2023/07/18 05:57:23;;;;;;;4.47;2.92;;;;;;;15.65;81.76;101980.44;5054981;28;20029;-53
2023/07/18 05:59:49;;;;;;;4.82;2.72;;;;;;;15.82;79.59;101979.16;5054732;28;20359;-54
2023/07/18 06:02:15;;;;;;;5.03;3.13;;;;;;;16.00;79.20;101981.28;5056627;28;20112;-53
2023/07/18 06:04:40;;;;;;;7.00;3.05;;;;;;;16.24;78.63;101986.50;5058111;28;20052;-54
2023/07/18 06:07:06;;;;;;;5.63;2.78;;;;;;;16.44;77.87;101990.19;5056204;28;20082;-53
2023/07/18 06:09:32;;;;;;;5.38;2.90;;;;;;;16.59;77.42;101985.38;5058436;28;20083;-54
2023/07/18 06:11:57;;;;;;;8.45;3.13;;;;;;;16.80;76.13;101985.38;5054199;28;20496;-54
2023/07/18 06:14:23;;;;;;;6.03;3.10;;;;;;;17.05;75.23;101988.69;5056002;28;20478;-55
2023/07/18 06:16:48;;;;;;;7.18;3.45;;;;;;;17.22;74.03;101989.91;5057446;28;20029;-54
2023/07/18 06:19:14;;;;;;;5.05;2.50;;;;;;;17.37;73.32;101986.75;5056454;28;20120;-54
2023/07/18 06:21:39;;;;;;;5.47;2.47;;;;;;;17.61;73.10;101982.03;5053695;28;20029;-52
2023/07/18 06:24:05;;;;;;;7.55;2.53;;;;;;;17.69;71.58;101974.16;5055962;28;20465;-54
2023/07/18 06:26:30;;;;;;;4.25;2.70;;;;;;;17.91;71.42;101976.63;5055239;28;20041;-55
2023/07/18 06:28:55;;;;;;;7.05;2.88;;;;;;;18.04;71.01;101971.00;5058048;28;20035;-51
2023/07/18 06:31:21;;;;;;;5.13;3.10;;;;;;;18.25;70.65;101978.97;5055342;28;20049;-55
2023/07/18 06:33:46;;;;;;;7.63;2.45;;;;;;;18.49;69.21;101980.38;5056312;28;20032;-55
2023/07/18 06:36:13;;;;;;;4.63;2.45;;;;;;;18.60;69.42;101987.44;5053606;28;20037;-55
2023/07/18 06:38:38;;;;;;;5.68;2.50;;;;;;;18.84;67.99;101981.66;5058087;28;20202;-54
2023/07/18 06:41:04;;;;;;;7.07;2.50;;;;;;;18.94;66.85;101978.97;5054350;28;20021;-54
2023/07/18 06:43:29;;;;;;;6.38;2.40;;;;;;;19.03;65.08;101978.94;5057046;28;20024;-55
2023/07/18 06:45:55;;;;;;;6.82;2.10;;;;;;;19.23;63.55;101978.84;5054552;28;20393;-54
2023/07/18 06:48:20;;;;;;;4.13;1.90;;;;;;;19.52;64.48;101975.22;5059284;28;20539;-55
2023/07/18 06:50:53;;;;;;;5.07;1.90;;;;;;;19.76;63.76;101970.16;5061463;28;20056;-54
2023/07/18 06:53:21;;;;;;;5.75;2.17;;;;;;;19.97;62.47;101974.44;5058415;28;20067;-55
2023/07/18 06:55:50;;;;;;;3.75;1.70;;;;;;;20.12;60.19;101970.22;5063013;28;20040;-53
2023/07/18 06:58:15;;;;;;;;;;;;;;;20.37;64.07;101973.16;5060067;28;20028;-51
2023/07/18 07:00:41;;;;;;;6.13;1.50;;;;;;;20.66;59.66;101978.31;5060690;28;19920;-51
2023/07/18 07:03:07;;;;;;;4.13;1.65;;;;;;;20.78;58.19;101970.81;5061124;28;20115;-52
2023/07/18 07:05:38;;;;;;;4.15;1.42;;;;;;;21.01;57.26;101970.28;5060255;28;20115;-53
2023/07/18 07:08:04;;;;;;;3.28;1.38;;;;;;;21.21;56.48;101971.75;5064053;28;20036;-54
2023/07/18 07:10:29;;;;;;;2.40;1.20;;;;;;;21.46;55.96;101976.47;5060148;28;20025;-53
2023/07/18 07:12:55;;;;;;;5.25;1.80;;;;;;;21.59;54.51;101966.06;5060936;28;20352;-52
2023/07/18 07:15:20;;;;;;;5.53;1.27;;;;;;;21.85;53.97;101975.94;5058480;28;20502;-53
2023/07/18 07:17:45;;;;;;;4.10;1.30;;;;;;;22.04;52.68;101970.25;5059087;28;20060;-51
2023/07/18 07:20:14;;;;;;;5.80;1.30;;;;;;;22.30;52.09;101967.47;5060592;28;20428;-54
2023/07/18 07:22:43;;;;;;;3.55;1.30;;;;;;;22.57;52.50;101962.75;5062203;28;20075;-53
2023/07/18 07:25:13;;;;;;;4.00;1.45;;;;;;;22.68;51.88;101966.94;5059294;28;20033;-55
2023/07/18 07:27:39;;;;;;;3.97;1.42;;;;;;;22.93;51.78;101959.63;5059773;28;20386;-52
2023/07/18 07:30:05;;;;;;;4.85;1.40;;;;;;;23.20;50.96;101955.72;5063088;28;20116;-52
2023/07/18 07:32:31;;;;;;;4.43;1.17;;;;;;;23.31;48.17;101967.22;5071374;28;20099;-52
2023/07/18 07:34:57;;;;;;;1.98;0.90;;;;;;;23.49;47.49;101966.97;5060300;28;20087;-54
2023/07/18 07:37:23;;;;;;;5.07;1.38;;;;;;;23.75;47.62;101961.28;5060188;28;20482;-54
2023/07/18 07:39:48;;;;;;;4.28;1.20;;;;;;;23.63;46.96;101964.38;5059047;28;20060;-55
2023/07/18 07:42:13;;;;;;;1.25;0.80;;;;;;;23.74;46.82;101960.41;5057016;28;20025;-54
2023/07/18 07:44:39;;;;;;;4.20;1.67;;;;;;;23.97;45.89;101957.78;5062688;28;20086;-53
2023/07/18 07:47:04;;;;;;;2.30;0.97;;;;;;;24.02;44.87;101958.06;5059964;28;20053;-55
2023/07/18 07:49:29;;;;;;;2.10;0.98;;;;;;;24.15;43.12;101962.91;5062159;28;20276;-55
2023/07/18 07:51:55;;;;;;;5.90;1.10;;;;;;;24.36;43.78;101964.97;5058043;28;20396;-52
2023/07/18 07:54:20;;;;;;;3.50;1.20;;;;;;;24.58;44.27;101950.72;5060298;28;20028;-56
2023/07/18 07:56:46;;;;;;;4.00;0.93;;;;;;;24.76;42.92;101956.66;5062628;28;20342;-53
2023/07/18 07:59:11;;;;;;;2.83;1.10;;;;;;;25.00;41.99;101960.19;5053074;28;20382;-52
2023/07/18 08:01:37;;;;;;;2.88;0.90;;;;;;;25.14;40.95;101951.19;5052469;28;20466;-54
2023/07/18 08:04:02;;;;;;;4.00;0.90;;;;;;;25.28;42.94;101955.81;5057461;28;20338;-53
2023/07/18 08:06:27;;;;;;;12.77;1.92;;;;;;;25.60;40.81;101961.88;5059219;28;20127;-55
2023/07/18 08:08:53;;;;;;;3.97;1.20;;;;;;;25.73;40.13;101949.44;5064181;28;20474;-52
2023/07/18 08:11:18;;;;;;;2.75;1.08;;;;;;;25.81;40.07;101947.47;5057063;28;20025;-52
2023/07/18 08:13:43;;;;;;;2.30;0.85;;;;;;;25.89;38.95;101948.38;5061076;28;20485;-55
2023/07/18 08:16:09;;;;;;;2.85;0.88;;;;;;;26.23;38.53;101950.47;5059756;28;20052;-55
2023/07/18 08:18:34;;;;;;;3.20;0.80;;;;;;;26.52;38.21;101941.28;5060868;28;20500;-55
2023/07/18 08:21:00;;;;;;;2.80;0.70;;;;;;;26.50;38.30;101940.63;5061142;28;20033;-54
2023/07/18 08:23:25;;;;;;;1.50;0.52;;;;;;;26.57;36.37;101938.78;5058642;28;20034;-52
2023/07/18 08:25:50;;;;;;;2.63;0.63;;;;;;;26.75;36.32;101942.97;5056152;28;20095;-54
2023/07/18 08:28:15;;;;;;;1.65;0.50;;;;;;;26.82;36.98;101934.81;5058387;28;20354;-52
2023/07/18 08:30:41;;;;;;;2.20;0.77;;;;;;;26.92;35.71;101925.22;5059247;28;20533;-52
2023/07/18 08:33:08;;;;;;;2.30;0.55;;;;;;;26.98;36.45;101928.19;5059998;28;20048;-52
2023/07/18 08:35:34;;;;;;;2.40;0.60;;;;;;;27.14;35.51;101927.88;5058753;28;20107;-54
2023/07/18 08:37:59;;;;;;;1.38;0.50;;;;;;;27.12;36.01;101917.16;5058812;28;20116;-51
2023/07/18 08:40:24;;;;;;;1.73;0.60;;;;;;;27.43;34.69;101925.94;5056392;28;20036;-54
2023/07/18 08:42:50;;;;;;;0.93;0.50;;;;;;;27.54;33.73;101925.34;5057758;28;20733;-52
2023/07/18 08:45:16;;;;;;;1.92;0.63;;;;;;;27.66;34.45;101925.59;5060135;28;20051;-52
2023/07/18 08:47:43;;;;;;;2.33;0.77;;;;;;;27.85;34.08;101921.25;5056811;28;20081;-55
2023/07/18 08:50:10;;;;;;;1.10;0.55;;;;;;;27.83;33.33;101921.47;5058636;28;20090;-51
2023/07/18 08:52:36;;;;;;;2.03;0.45;;;;;;;28.14;32.68;101913.78;5061560;28;20038;-53
2023/07/18 08:55:03;;;;;;;1.52;0.55;;;;;;;28.18;32.20;101912.31;5060227;28;20068;-50
2023/07/18 08:57:30;;;;;;;2.58;0.68;;;;;;;28.39;32.00;101919.44;5058656;28;20035;-50
2023/07/18 09:00:00;;;;;;;2.20;0.65;;;;;;;28.74;31.93;101909.13;5060283;28;20040;-50
2023/07/18 09:02:25;;;;;;;2.72;0.80;;;;;;;28.90;31.19;101904.28;5060429;28;20391;-51
2023/07/18 09:04:50;;;;;;;2.35;0.70;;;;;;;29.27;31.66;101904.63;5059128;28;20024;-51
2023/07/18 09:07:17;;;;;;;3.87;0.67;;;;;;;29.36;30.37;101899.72;5061078;28;20050;-50
2023/07/18 09:09:48;;;;;;;4.15;1.17;;;;;;;29.44;30.39;101904.97;5055101;28;20272;-50
2023/07/18 09:12:14;;;;;;;3.00;0.90;;;;;;;29.53;30.68;101901.75;5059916;28;20076;-50
2023/07/18 09:14:39;;;;;;;2.78;0.75;;;;;;;29.69;30.69;101889.47;5057480;28;20075;-50
2023/07/18 09:17:07;;;;;;;3.85;1.02;;;;;;;29.51;30.45;101892.06;5055370;28;20028;-50
2023/07/18 09:19:48;;;;;;;1.80;0.77;;;;;;;30.00;30.95;101886.97;5055393;28;20036;-49
2023/07/18 09:22:15;;;;;;;1.80;0.70;;;;;;;30.02;29.90;101877.44;5058060;28;20036;-50
2023/07/18 09:24:41;;;;;;;3.10;0.60;;;;;;;30.00;30.04;101873.28;5060837;28;20350;-50
2023/07/18 09:27:09;;;;;;;2.10;0.77;;;;;;;29.84;29.42;101869.16;5054051;28;20036;-50
2023/07/18 09:29:35;;;;;;;3.97;0.80;;;;;;;29.93;30.08;101866.97;5055036;28;20025;-53
2023/07/18 09:32:01;;;;;;;4.22;0.70;;;;;;;30.05;30.02;101863.31;5056331;28;20532;-50
2023/07/18 09:34:27;;;;;;;3.90;0.75;;;;;;;30.13;29.51;101864.94;5055821;28;20051;-50
2023/07/18 09:37:03;;;;;;;1.10;0.60;;;;;;;30.21;30.88;101863.81;5056474;28;20028;-52
2023/07/18 09:39:29;;;;;;;1.30;0.65;;;;;;;30.31;28.11;101866.91;5058577;28;20388;-50
2023/07/18 09:41:56;;;;;;;1.48;0.60;;;;;;;30.59;29.31;101855.47;5054399;28;20113;-50
2023/07/18 09:44:25;;;;;;;2.00;0.70;;;;;;;30.56;29.12;101860.56;5055477;28;20033;-50
2023/07/18 09:46:51;;;;;;;1.58;0.60;;;;;;;30.24;30.40;101866.97;5058940;28;20051;-50
2023/07/18 09:49:20;;;;;;;2.05;1.05;;;;;;;30.20;29.12;101862.16;5059315;28;20103;-50
2023/07/18 09:51:51;;;;;;;3.80;1.00;;;;;;;29.89;29.80;101863.84;5060985;28;20031;-50
2023/07/18 09:54:17;;;;;;;2.78;0.70;;;;;;;29.97;28.84;101869.06;5063942;28;20040;-50
2023/07/18 09:56:44;;;;;;;4.53;0.90;;;;;;;29.76;29.57;101867.53;5061003;28;20028;-50
2023/07/18 09:59:09;;;;;;;2.13;0.70;;;;;;;30.10;29.39;101861.81;5057767;28;20033;-50
2023/07/18 10:01:35;;;;;;;2.13;0.50;;;;;;;30.36;29.25;101856.13;5058827;28;20528;-51
2023/07/18 10:04:02;;;;;;;1.67;0.50;;;;;;;30.14;28.55;101849.34;5054926;28;20036;-50
2023/07/18 10:06:28;;;;;;;2.05;0.70;;;;;;;30.42;27.72;101843.41;5055420;28;20470;-50
2023/07/18 10:08:54;;;;;;;2.53;0.80;;;;;;;30.79;28.40;101847.03;5058486;28;20107;-51
2023/07/18 10:11:19;;;;;;;1.38;0.47;;;;;;;30.99;29.21;101841.34;5058587;28;20426;-51
2023/07/18 10:14:08;;;;;;;2.75;1.00;;;;;;;30.97;30.25;101835.22;5061720;28;20090;-50
2023/07/18 10:16:41;;;;;;;2.80;0.77;;;;;;;30.78;28.84;101830.81;5062076;28;20033;-50
2023/07/18 10:19:18;;;;;;;1.17;0.60;;;;;;;30.71;29.08;101819.91;5052791;28;20036;-50
2023/07/18 10:21:48;;;;;;;3.00;0.70;;;;;;;30.58;29.62;101809.94;5056590;28;20029;-51
2023/07/18 10:24:24;;;;;;;1.05;0.60;;;;;;;30.56;29.46;101814.81;5061058;28;20045;-52
2023/07/18 10:27:08;;;;;;;1.27;0.60;;;;;;;30.33;29.04;101809.13;5062138;28;20040;-51
2023/07/18 10:29:38;;;;;;;1.98;0.75;;;;;;;30.05;29.35;101813.16;5063662;28;20181;-50
2023/07/18 10:32:05;;;;;;;1.60;0.40;;;;;;;29.97;28.59;101821.66;5062893;28;20052;-51
2023/07/18 10:34:37;;;;;;;1.55;0.57;;;;;;;29.93;29.67;101806.72;5057330;28;20021;-52
2023/07/18 10:37:07;;;;;;;3.15;0.77;;;;;;;29.84;28.28;101801.56;5059961;28;20037;-51
2023/07/18 10:39:38;;;;;;;1.90;0.68;;;;;;;29.87;29.08;101803.00;5060754;28;20024;-52
2023/07/18 10:42:26;;;;;;;1.35;0.60;;;;;;;30.09;30.80;101800.69;5063871;28;20037;-50
2023/07/18 10:45:00;;;;;;;1.45;0.50;;;;;;;29.95;30.06;101810.09;5061120;28;20025;-52
2023/07/18 10:47:27;;;;;;;1.75;0.90;;;;;;;29.74;28.56;101805.81;5059736;28;20024;-50
2023/07/18 10:49:53;;;;;;;1.45;0.50;;;;;;;29.57;29.14;101802.78;5060269;28;20389;-51
2023/07/18 10:52:20;;;;;;;3.05;0.98;;;;;;;29.31;29.28;101788.19;5061952;28;20033;-52
2023/07/18 10:54:50;;;;;;;2.15;0.75;;;;;;;29.43;30.22;101797.38;5065833;28;20086;-51
2023/07/18 10:57:16;;;;;;;2.25;0.77;;;;;;;29.47;30.35;101797.78;5061488;28;20043;-52
2023/07/18 10:59:45;;;;;;;4.47;1.00;;;;;;;29.54;29.43;101793.09;5060664;28;20116;-52
2023/07/18 11:02:11;;;;;;;;;;;;;;;30.17;31.29;101783.97;5063781;28;20058;-52
2023/07/18 11:04:36;;;;;;;3.88;0.85;;;;;;;30.06;29.29;101784.69;5059953;28;19920;-50
2023/07/18 11:07:01;;;;;;;6.00;1.20;;;;;;;30.08;28.74;101783.41;5055429;28;20445;-51
2023/07/18 11:09:27;;;;;;;4.32;0.88;;;;;;;30.03;29.29;101786.00;5060665;28;20120;-51
2023/07/18 11:11:54;;;;;;;23.35;2.20;;;;;;;30.07;29.47;101778.16;5059509;28;20035;-52
2023/07/18 11:14:19;;;;;;;7.28;1.30;;;;;;;30.35;28.55;101787.81;5060970;28;20067;-50
2023/07/18 11:16:45;;;;;;;3.60;0.80;;;;;;;30.44;29.24;101778.22;5049544;28;20029;-53
2023/07/18 11:19:10;;;;;;;2.47;0.75;;;;;;;30.46;28.43;101788.97;5058599;28;20105;-51
2023/07/18 11:21:37;;;;;;;3.53;0.90;;;;;;;30.84;28.01;101776.94;5059360;28;20486;-51
2023/07/18 11:24:03;;;;;;;2.55;0.88;;;;;;;30.86;27.74;101783.88;5061022;28;20412;-50